Time;durP1;ratioP1;P1;durP2;ratioP2;P2;SDS_P1;SDS_P2;PMS_P1;PMS_P2;Temp;Humidity;BMP_temperature;BMP_pressure;BME280_temperature;BME280_humidity;BME280_pressure;Samples;Min_cycle;Max_cycle;Signal;HPM_P1;HPM_P2
2022/03/27 00:02:21;;;;;;;25.45;9.20;;;;;;;10.85;41.21;150380.56;1817589;78;21205;-61
2022/03/27 00:04:48;;;;;;;17.50;7.92;;;;;;;10.88;41.19;150388.34;1817397;78;21021;-61
2022/03/27 00:07:16;;;;;;;20.50;9.23;;;;;;;10.90;41.21;150393.53;1817713;78;20968;-60
2022/03/27 00:09:43;;;;;;;16.77;8.25;;;;;;;10.89;41.21;150392.22;1817006;77;21022;-60
2022/03/27 00:12:10;;;;;;;17.60;8.20;;;;;;;10.89;41.25;150392.22;1817006;78;21011;-61
2022/03/27 00:14:38;;;;;;;18.65;8.00;;;;;;;10.89;41.23;150392.22;1817146;78;22081;-60
2022/03/27 00:17:05;;;;;;;15.85;8.43;;;;;;;10.89;41.29;150390.94;1816835;78;21035;-61
2022/03/27 00:19:32;;;;;;;15.90;8.50;;;;;;;10.88;41.36;150388.34;1816394;78;21051;-62
2022/03/27 00:22:00;;;;;;;19.15;9.35;;;;;;;10.86;41.45;150384.44;1814289;77;20980;-62
2022/03/27 00:24:27;;;;;;;16.90;8.85;;;;;;;10.87;41.53;150385.75;1814281;78;21312;-61
2022/03/27 00:26:55;;;;;;;21.70;8.95;;;;;;;10.86;41.52;150384.44;1814478;78;21203;-64
2022/03/27 00:29:23;;;;;;;18.50;8.65;;;;;;;10.85;41.56;150381.84;1814847;77;20916;-60
2022/03/27 00:31:50;;;;;;;15.32;8.25;;;;;;;10.83;41.60;150376.66;1813989;79;21101;-61
2022/03/27 00:34:22;;;;;;;17.15;9.05;;;;;;;10.82;41.67;150372.73;1814529;78;20924;-62
2022/03/27 00:36:49;;;;;;;15.90;8.40;;;;;;;10.81;41.72;150371.47;1813440;78;21051;-62
2022/03/27 00:39:16;;;;;;;18.52;9.13;;;;;;;10.80;41.69;150368.87;1814829;79;21230;-62
2022/03/27 00:41:43;;;;;;;18.60;8.95;;;;;;;10.81;41.70;150371.47;1814766;79;20970;-62
2022/03/27 00:44:11;;;;;;;18.55;8.68;;;;;;;10.80;41.74;150367.55;1814354;79;21102;-62
2022/03/27 00:46:38;;;;;;;23.27;9.05;;;;;;;10.82;41.74;150372.73;1814077;79;21030;-62
2022/03/27 00:49:05;;;;;;;16.95;8.78;;;;;;;10.82;41.74;150372.73;1814722;77;22007;-62
2022/03/27 00:51:32;;;;;;;17.98;8.88;;;;;;;10.80;41.80;150368.87;1814649;78;21117;-62
2022/03/27 00:54:00;;;;;;;15.93;9.25;;;;;;;10.79;41.89;150366.28;1814406;78;21031;-62
2022/03/27 00:56:27;;;;;;;19.00;8.83;;;;;;;10.79;42.01;150364.95;1813671;79;21019;-63
2022/03/27 00:58:54;;;;;;;24.27;8.30;;;;;;;10.80;42.05;150368.87;1813726;79;21052;-63
2022/03/27 01:01:26;;;;;;;22.48;9.45;;;;;;;10.83;42.06;150376.66;1814161;79;20905;-63
2022/03/27 01:03:57;;;;;;;14.70;8.43;;;;;;;10.84;42.12;150379.23;1813686;79;21775;-63
2022/03/27 01:06:39;;;;;;;18.62;8.73;;;;;;;10.86;42.14;150383.16;1813837;78;21007;-63
2022/03/27 01:11:54;;;;;;;16.37;8.25;;;;;;;10.91;42.19;150394.80;1814469;78;21003;-64
2022/03/27 01:14:32;;;;;;;17.30;8.33;;;;;;;10.93;42.15;150400.00;1814493;78;21398;-61
2022/03/27 01:17:11;;;;;;;14.47;7.80;;;;;;;10.94;42.13;150403.91;1814264;77;21211;-61
2022/03/27 01:19:44;;;;;;;17.52;9.18;;;;;;;10.94;42.08;150403.91;1813776;79;21492;-60
2022/03/27 01:22:11;;;;;;;;;;;;;;;10.96;42.03;150407.81;1816937;77;21051;-62
2022/03/27 01:24:38;;;;;;;19.57;9.48;;;;;;;10.95;42.08;150405.22;1813874;78;20701;-63
2022/03/27 01:27:05;;;;;;;17.48;9.03;;;;;;;10.94;42.25;150402.58;1814469;79;21008;-63
2022/03/27 01:29:33;;;;;;;17.80;8.68;;;;;;;10.95;42.35;150405.22;1814838;78;21615;-63
2022/03/27 01:32:01;;;;;;;19.12;9.25;;;;;;;10.92;42.49;150398.72;1814575;78;20987;-62
2022/03/27 01:34:29;;;;;;;19.42;9.60;;;;;;;10.88;42.73;150389.63;1814554;78;20925;-63
2022/03/27 01:36:57;;;;;;;24.52;9.38;;;;;;;10.84;42.87;150379.23;1814806;78;21044;-63
2022/03/27 01:39:24;;;;;;;16.50;9.30;;;;;;;10.82;42.99;150374.06;1783513;79;21485;-63
2022/03/27 01:41:51;;;;;;;18.35;9.30;;;;;;;10.79;43.08;150366.28;1814587;77;21528;-63
2022/03/27 01:44:20;;;;;;;21.23;8.25;;;;;;;10.72;43.18;150348.06;1814774;79;20996;-63
2022/03/27 01:46:49;;;;;;;15.65;8.60;;;;;;;10.66;43.32;150333.83;1814833;79;21094;-61
2022/03/27 01:49:16;;;;;;;16.23;8.50;;;;;;;10.58;43.54;150314.36;1815018;78;20961;-61
2022/03/27 01:51:44;;;;;;;15.93;8.43;;;;;;;10.53;43.65;150301.39;1815191;79;21098;-63
2022/03/27 01:54:11;;;;;;;19.00;9.23;;;;;;;10.47;43.82;150285.78;1814927;79;22194;-62
2022/03/27 01:56:39;;;;;;;21.97;9.38;;;;;;;10.38;43.97;150262.41;1814886;79;21040;-63
2022/03/27 01:59:07;;;;;;;20.32;9.13;;;;;;;10.29;44.15;150241.66;1814269;78;21448;-63
2022/03/27 02:01:37;;;;;;;17.80;8.68;;;;;;;10.26;44.29;150233.84;1814189;78;21019;-62
2022/03/27 02:04:05;;;;;;;16.85;9.20;;;;;;;10.22;44.38;150222.19;1813750;78;21028;-63
2022/03/27 02:06:33;;;;;;;17.77;8.50;;;;;;;10.16;44.54;150207.91;1813832;79;21190;-63
2022/03/27 02:09:02;;;;;;;20.08;9.33;;;;;;;10.09;44.78;150191.03;1814060;78;21011;-61
2022/03/27 02:11:29;;;;;;;19.67;9.13;;;;;;;10.04;44.91;150179.34;1814149;78;20941;-60
2022/03/27 02:13:56;;;;;;;23.05;9.80;;;;;;;10.02;45.05;150172.89;1814228;78;21015;-61
2022/03/27 02:16:23;;;;;;;16.95;9.40;;;;;;;9.99;45.23;150166.39;1814325;78;21521;-62
2022/03/27 02:18:50;;;;;;;17.42;9.43;;;;;;;10.00;45.32;150168.98;1814360;78;22086;-62
2022/03/27 02:21:18;;;;;;;17.90;8.98;;;;;;;10.01;45.34;150171.58;1814797;77;20959;-60
2022/03/27 02:23:45;;;;;;;20.77;9.40;;;;;;;10.01;45.37;150171.58;1814081;78;21035;-60
2022/03/27 02:26:12;;;;;;;17.90;9.30;;;;;;;10.01;45.46;150171.58;1814909;79;21079;-61
2022/03/27 02:28:40;;;;;;;23.12;9.78;;;;;;;10.02;45.51;150174.17;1814642;79;21050;-61
2022/03/27 02:31:08;;;;;;;18.82;9.20;;;;;;;10.03;45.61;150176.75;1815126;79;21851;-61
2022/03/27 02:33:36;;;;;;;18.45;9.58;;;;;;;10.04;45.92;150178.08;1815074;79;21027;-61
2022/03/27 02:36:08;;;;;;;18.02;8.93;;;;;;;10.10;46.19;150193.63;1814876;77;21074;-61
2022/03/27 02:38:35;;;;;;;20.95;10.58;;;;;;;10.18;46.32;150213.09;1815079;78;21513;-61
2022/03/27 02:41:04;;;;;;;21.15;9.85;;;;;;;10.24;46.60;150228.66;1814817;78;21043;-61
2022/03/27 02:43:31;;;;;;;23.75;9.45;;;;;;;10.32;46.98;150248.13;1814412;78;21218;-61
2022/03/27 02:46:00;;;;;;;20.75;9.60;;;;;;;10.39;47.23;150265.00;1814624;78;21011;-61
2022/03/27 02:48:27;;;;;;;18.87;9.28;;;;;;;10.42;47.64;150274.16;1814708;79;21016;-61
2022/03/27 02:50:54;;;;;;;17.87;8.03;;;;;;;10.42;49.08;150272.83;1814222;77;21063;-61
2022/03/27 02:53:21;;;;;;;15.80;8.50;;;;;;;10.38;50.01;150262.41;1814809;78;21442;-61
2022/03/27 02:55:49;;;;;;;18.20;8.38;;;;;;;10.34;51.06;150253.31;1814690;79;21214;-59
2022/03/27 02:58:16;;;;;;;15.95;8.18;;;;;;;10.28;52.13;150239.08;1815187;79;20993;-60
2022/03/27 03:00:44;;;;;;;17.75;7.80;;;;;;;10.23;52.73;150226.06;1815012;78;21039;-60
2022/03/27 03:03:13;;;;;;;17.23;7.53;;;;;;;10.19;54.19;150215.69;1815501;77;21063;-62
2022/03/27 03:05:42;;;;;;;14.68;5.60;;;;;;;10.17;55.10;150210.50;1815194;79;20996;-60
2022/03/27 03:08:11;;;;;;;12.25;5.60;;;;;;;10.16;56.30;150209.19;1783896;79;22093;-60
2022/03/27 03:10:40;;;;;;;15.35;5.53;;;;;;;10.17;56.27;150211.83;1815022;78;21740;-60
2022/03/27 03:13:08;;;;;;;7.45;4.40;;;;;;;10.20;55.96;150218.28;1814666;79;21091;-60
2022/03/27 03:15:41;;;;;;;15.45;4.72;;;;;;;10.22;55.49;150223.47;1813916;77;21027;-60
2022/03/27 03:18:12;;;;;;;10.65;4.20;;;;;;;10.23;55.22;150226.06;1814501;78;21011;-60
2022/03/27 03:20:39;;;;;;;11.40;4.40;;;;;;;10.24;55.07;150228.66;1815091;79;22069;-61
2022/03/27 03:23:08;;;;;;;16.00;4.30;;;;;;;10.24;55.05;150228.66;1814309;78;21000;-60
2022/03/27 03:25:36;;;;;;;10.60;4.42;;;;;;;10.21;54.35;150220.88;1814738;78;21710;-61
2022/03/27 03:28:04;;;;;;;12.95;4.72;;;;;;;10.18;53.99;150213.09;1814286;77;21015;-60
2022/03/27 03:30:32;;;;;;;10.40;4.50;;;;;;;10.13;53.88;150200.13;1814296;78;21141;-62
2022/03/27 03:32:59;;;;;;;15.15;4.78;;;;;;;10.07;53.64;150184.59;1813969;78;21461;-60
2022/03/27 03:35:26;;;;;;;15.93;4.50;;;;;;;10.01;53.67;150170.31;1813997;79;21031;-60
2022/03/27 03:37:54;;;;;;;15.28;4.70;;;;;;;9.95;53.76;150156.03;1813654;79;21521;-61
2022/03/27 03:40:21;;;;;;;10.80;4.60;;;;;;;9.88;53.69;150139.16;1814557;77;21130;-60
2022/03/27 03:42:50;;;;;;;10.43;4.70;;;;;;;9.80;53.69;150118.42;1814613;79;21046;-60
2022/03/27 03:45:18;;;;;;;11.00;4.10;;;;;;;9.68;53.82;150088.59;1814853;78;21215;-60
2022/03/27 03:47:45;;;;;;;13.08;4.97;;;;;;;9.60;53.87;150067.81;1812713;79;21006;-62
2022/03/27 03:50:13;;;;;;;9.25;4.95;;;;;;;9.48;53.83;150038.00;1796151;79;21061;-61
2022/03/27 03:52:42;;;;;;;10.78;4.65;;;;;;;9.39;53.78;150014.67;1795241;79;21005;-60
2022/03/27 03:55:09;;;;;;;10.93;4.65;;;;;;;9.30;53.83;149993.94;1795430;79;21036;-60
2022/03/27 03:57:37;;;;;;;18.23;5.37;;;;;;;9.23;53.91;149974.50;1796152;78;21556;-60
2022/03/27 04:00:07;;;;;;;14.18;5.03;;;;;;;9.14;53.97;149952.45;1814288;78;21035;-60
2022/03/27 04:02:38;;;;;;;8.98;4.92;;;;;;;9.05;54.11;149930.41;1814183;79;21217;-60
2022/03/27 04:05:07;;;;;;;13.53;5.03;;;;;;;8.98;54.47;149913.55;1814365;78;21095;-60
2022/03/27 04:07:34;;;;;;;13.18;4.65;;;;;;;8.92;54.67;149896.69;1814793;78;21528;-59
2022/03/27 04:10:03;;;;;;;13.15;5.70;;;;;;;8.87;54.93;149886.33;1814492;77;22073;-61
2022/03/27 04:12:32;;;;;;;12.37;5.15;;;;;;;8.82;55.27;149873.38;1814573;78;20953;-60
2022/03/27 04:14:59;;;;;;;11.00;5.10;;;;;;;8.80;55.42;149866.88;1814579;79;21075;-60
2022/03/27 04:17:28;;;;;;;12.80;5.37;;;;;;;8.77;55.64;149860.44;1814733;78;20956;-60
2022/03/27 04:19:56;;;;;;;19.20;5.47;;;;;;;8.74;55.78;149853.94;1814662;77;20939;-60
2022/03/27 04:22:23;;;;;;;12.18;5.37;;;;;;;8.75;55.75;149855.25;1815145;79;21238;-61
2022/03/27 04:24:50;;;;;;;15.40;5.67;;;;;;;8.77;55.79;149860.44;1814423;77;21028;-60
2022/03/27 04:27:17;;;;;;;11.38;5.53;;;;;;;8.77;55.75;149859.11;1815157;78;21386;-60
2022/03/27 04:29:44;;;;;;;12.18;5.75;;;;;;;8.74;55.79;149853.94;1814829;77;21000;-60
2022/03/27 04:32:13;;;;;;;13.53;5.45;;;;;;;8.73;55.77;149851.34;1815214;78;21004;-60
2022/03/27 04:34:40;;;;;;;20.90;5.72;;;;;;;8.72;55.63;149848.75;1814773;77;20943;-60
2022/03/27 04:37:07;;;;;;;15.80;5.30;;;;;;;8.72;55.41;149847.44;1814790;79;21043;-60
2022/03/27 04:39:35;;;;;;;10.23;5.40;;;;;;;8.70;55.33;149842.25;1814840;79;21016;-60
2022/03/27 04:42:04;;;;;;;15.13;5.37;;;;;;;8.68;55.12;149838.41;1814906;78;21003;-60
2022/03/27 04:44:31;;;;;;;18.90;5.80;;;;;;;8.67;55.09;149834.48;1814926;79;20924;-60
2022/03/27 04:47:00;;;;;;;9.88;4.55;;;;;;;8.67;55.07;149834.48;1814829;78;20991;-60
2022/03/27 04:49:27;;;;;;;16.40;5.35;;;;;;;8.69;54.85;149839.67;1814879;79;21414;-61
2022/03/27 04:51:55;;;;;;;11.83;4.65;;;;;;;8.67;54.76;149834.48;1814422;79;20959;-60
2022/03/27 04:54:22;;;;;;;16.75;6.00;;;;;;;8.67;53.97;149835.81;1814786;79;20941;-60
2022/03/27 04:56:51;;;;;;;17.50;3.47;;;;;;;8.69;53.31;149840.98;1814384;78;21063;-60
2022/03/27 04:59:18;;;;;;;10.78;4.67;;;;;;;8.70;52.22;149842.25;1814749;77;21723;-60
2022/03/27 05:01:46;;;;;;;10.45;4.03;;;;;;;8.71;51.65;149844.84;1814261;79;21425;-60
2022/03/27 05:04:13;;;;;;;13.10;3.00;;;;;;;8.75;50.87;149855.25;1814458;79;21023;-60
2022/03/27 05:06:42;;;;;;;20.23;2.37;;;;;;;8.77;45.06;149859.11;1813948;78;21082;-61
2022/03/27 05:09:10;;;;;;;21.20;2.08;;;;;;;8.65;40.83;149829.31;1814623;77;21015;-60
2022/03/27 05:11:39;;;;;;;23.05;3.37;;;;;;;8.42;39.84;149772.25;1814019;77;21027;-62
2022/03/27 05:14:06;;;;;;;18.00;2.42;;;;;;;8.25;39.71;149730.78;1814386;79;20979;-60
2022/03/27 05:16:33;;;;;;;10.68;2.10;;;;;;;8.23;39.39;149724.34;1814244;77;21031;-61
2022/03/27 05:19:00;;;;;;;11.88;1.77;;;;;;;8.44;39.45;149777.44;1813791;78;21056;-63
2022/03/27 05:21:27;;;;;;;10.98;1.80;;;;;;;8.81;38.51;149870.80;1814219;79;21083;-60
2022/03/27 05:23:56;;;;;;;8.78;1.80;;;;;;;9.17;37.42;149961.53;1814026;78;21003;-60
2022/03/27 05:26:23;;;;;;;21.40;1.95;;;;;;;9.48;36.63;150036.72;1814103;78;21091;-60
2022/03/27 05:28:50;;;;;;;9.93;1.70;;;;;;;9.51;36.28;150044.48;1813636;79;21012;-60
2022/03/27 05:31:17;;;;;;;14.55;2.22;;;;;;;9.39;36.19;150015.94;1814331;79;21020;-60
2022/03/27 05:33:44;;;;;;;15.60;2.00;;;;;;;9.25;36.54;149979.67;1813657;78;21464;-62
2022/03/27 05:36:12;;;;;;;6.53;2.00;;;;;;;9.01;36.37;149921.31;1814004;79;21306;-61
2022/03/27 05:38:39;;;;;;;8.75;1.80;;;;;;;8.79;36.61;149865.61;1814418;78;21035;-61
2022/03/27 05:41:07;;;;;;;10.65;2.00;;;;;;;8.63;36.70;149824.13;1814261;79;21074;-61
2022/03/27 05:43:35;;;;;;;18.42;1.90;;;;;;;8.44;36.16;149777.44;1814593;77;20971;-61
2022/03/27 05:46:03;;;;;;;10.45;2.05;;;;;;;8.27;36.29;149735.97;1814661;77;21477;-61
2022/03/27 05:48:31;;;;;;;13.98;1.70;;;;;;;8.18;36.28;149712.66;1814887;79;20974;-60
2022/03/27 05:50:59;;;;;;;20.95;2.05;;;;;;;8.07;36.35;149684.14;1814551;79;21096;-62
2022/03/27 05:53:26;;;;;;;10.93;1.80;;;;;;;7.98;36.54;149663.44;1815053;79;21098;-62
2022/03/27 05:55:53;;;;;;;15.98;2.00;;;;;;;7.97;36.69;149660.84;1814527;79;20940;-61
2022/03/27 05:58:20;;;;;;;22.85;2.05;;;;;;;7.97;36.77;149659.58;1815035;77;20949;-61
2022/03/27 06:00:48;;;;;;;14.75;2.00;;;;;;;7.95;36.82;149654.34;1814296;78;20952;-62
2022/03/27 06:03:15;;;;;;;8.85;2.40;;;;;;;7.94;36.99;149653.08;1814691;77;21003;-63
2022/03/27 06:05:46;;;;;;;8.93;1.70;;;;;;;8.00;36.82;149668.61;1814537;79;21031;-61
2022/03/27 06:08:13;;;;;;;7.85;1.75;;;;;;;8.01;36.82;149671.20;1814568;79;21023;-60
2022/03/27 06:10:42;;;;;;;7.53;1.37;;;;;;;8.08;36.57;149686.78;1813843;78;21012;-61
2022/03/27 06:13:10;;;;;;;17.35;1.87;;;;;;;8.07;36.36;149684.14;1814518;78;21701;-60
2022/03/27 06:15:39;;;;;;;24.57;2.02;;;;;;;8.03;36.69;149676.38;1813584;77;21079;-61
2022/03/27 06:18:11;;;;;;;9.68;1.82;;;;;;;8.06;36.55;149681.55;1813410;79;22191;-61
2022/03/27 06:20:40;;;;;;;10.58;1.70;;;;;;;8.00;36.53;149667.34;1813350;78;22245;-64
2022/03/27 06:23:07;;;;;;;12.33;1.70;;;;;;;8.00;36.75;149667.34;1814271;78;21087;-61
2022/03/27 06:25:35;;;;;;;17.23;2.10;;;;;;;8.05;36.85;149678.97;1814031;78;21133;-62
2022/03/27 06:28:04;;;;;;;9.55;2.22;;;;;;;8.06;36.77;149681.55;1813827;78;21098;-60
2022/03/27 06:30:32;;;;;;;10.55;1.65;;;;;;;8.12;36.68;149697.13;1813897;78;20992;-59
2022/03/27 06:33:00;;;;;;;6.47;1.55;;;;;;;8.23;36.82;149725.61;1814308;78;21007;-64
2022/03/27 06:35:27;;;;;;;9.03;1.72;;;;;;;8.30;35.79;149743.78;1814237;79;21059;-62
2022/03/27 06:37:56;;;;;;;12.75;2.30;;;;;;;8.29;35.98;149741.19;1813157;77;22716;-63
2022/03/27 06:40:23;;;;;;;4.75;1.60;;;;;;;8.46;35.72;149782.61;1814066;79;20909;-60
2022/03/27 06:42:50;;;;;;;9.18;1.65;;;;;;;8.77;34.87;149860.44;1813383;79;21087;-61
2022/03/27 06:45:18;;;;;;;10.23;1.92;;;;;;;8.95;34.14;149905.78;1813777;79;21036;-60
2022/03/27 06:47:46;;;;;;;15.58;2.30;;;;;;;9.26;33.96;149982.27;1813855;78;21438;-62
2022/03/27 06:50:13;;;;;;;11.53;1.90;;;;;;;9.83;33.10;150124.87;1814195;78;21146;-60
2022/03/27 06:52:43;;;;;;;17.80;1.70;;;;;;;10.04;32.39;150179.34;1813510;78;21022;-60
2022/03/27 06:55:10;;;;;;;14.83;1.95;;;;;;;9.90;32.59;150143.06;1813899;77;21019;-62
2022/03/27 06:57:39;;;;;;;12.45;1.60;;;;;;;9.88;32.90;150137.88;1813679;78;21548;-60
2022/03/27 07:03:03;;;;;;;11.00;1.92;;;;;;;10.34;31.85;150252.03;1813536;77;22099;-63
2022/03/27 07:05:35;;;;;;;10.25;2.20;;;;;;;10.15;31.96;150205.31;1814236;77;21000;-64
2022/03/27 07:08:05;;;;;;;9.15;1.67;;;;;;;9.71;31.59;150096.36;1814681;79;21079;-61
2022/03/27 07:10:34;;;;;;;17.70;2.02;;;;;;;9.36;31.85;150006.91;1814242;78;21000;-61
2022/03/27 07:13:03;;;;;;;15.53;2.27;;;;;;;9.11;32.43;149945.95;1814238;78;21083;-60
2022/03/27 07:15:30;;;;;;;7.20;1.60;;;;;;;8.94;32.63;149901.87;1814261;79;21945;-60
2022/03/27 07:17:59;;;;;;;9.60;1.90;;;;;;;8.77;33.05;149860.44;1814468;79;21074;-60
2022/03/27 07:20:28;;;;;;;5.50;1.40;;;;;;;8.65;33.78;149829.31;1814842;79;20965;-60
2022/03/27 07:22:58;;;;;;;11.50;1.85;;;;;;;8.54;34.29;149803.42;1811847;78;21487;-60
2022/03/27 07:25:27;;;;;;;11.88;1.65;;;;;;;8.56;34.54;149808.59;1806251;78;20969;-61
2022/03/27 07:27:55;;;;;;;14.53;1.80;;;;;;;8.64;34.33;149826.72;1805898;79;21222;-60
2022/03/27 07:30:22;;;;;;;16.97;2.45;;;;;;;8.69;34.32;149840.98;1806150;79;20960;-60
2022/03/27 07:32:54;;;;;;;18.27;1.77;;;;;;;8.63;34.12;149824.13;1805413;78;21544;-61
2022/03/27 07:35:22;;;;;;;14.40;1.72;;;;;;;8.56;33.92;149808.59;1805790;79;21466;-60
2022/03/27 07:37:51;;;;;;;12.15;1.60;;;;;;;8.51;33.58;149795.66;1804721;79;21565;-60
2022/03/27 07:40:20;;;;;;;7.17;1.50;;;;;;;8.47;33.29;149785.19;1805359;79;20997;-61
2022/03/27 07:42:50;;;;;;;11.48;1.50;;;;;;;8.47;32.55;149785.19;1790771;79;21560;-61
2022/03/27 07:45:19;;;;;;;7.37;1.40;;;;;;;8.41;33.04;149769.66;1768906;80;21046;-63
2022/03/27 07:47:47;;;;;;;14.28;1.80;;;;;;;8.41;33.33;149770.98;1771495;79;20998;-62
2022/03/27 07:50:14;;;;;;;11.00;1.42;;;;;;;8.44;33.69;149777.44;1802724;79;21510;-61
2022/03/27 07:52:42;;;;;;;8.93;1.47;;;;;;;8.37;32.81;149759.31;1803010;79;21245;-61
2022/03/27 07:55:11;;;;;;;15.88;1.98;;;;;;;8.17;33.62;149710.08;1802425;79;21043;-63
2022/03/27 07:57:38;;;;;;;18.02;1.62;;;;;;;8.12;34.28;149697.13;1802049;79;20994;-63
2022/03/27 08:00:10;;;;;;;8.00;2.50;;;;;;;8.08;34.71;149686.78;1810696;79;21031;-63
2022/03/27 08:02:41;;;;;;;12.30;1.62;;;;;;;8.11;35.20;149694.55;1810894;79;20944;-63
2022/03/27 08:05:09;;;;;;;10.00;1.80;;;;;;;8.17;35.22;149711.34;1810720;78;21154;-60
2022/03/27 08:07:38;;;;;;;9.98;2.00;;;;;;;8.21;34.02;149719.16;1810680;79;21030;-60
2022/03/27 08:10:08;;;;;;;8.35;2.33;;;;;;;8.18;33.59;149712.66;1810726;79;21229;-61
2022/03/27 08:12:36;;;;;;;13.08;2.17;;;;;;;8.10;34.33;149691.95;1810641;78;21403;-60
2022/03/27 08:15:06;;;;;;;11.70;2.08;;;;;;;8.09;34.66;149689.38;1790065;78;21074;-60
2022/03/27 08:17:35;;;;;;;17.82;1.92;;;;;;;8.12;33.82;149698.41;1783346;79;21465;-63
2022/03/27 08:20:02;;;;;;;11.78;1.47;;;;;;;8.14;31.93;149703.58;1783835;79;21070;-64
2022/03/27 08:22:30;;;;;;;6.92;1.30;;;;;;;8.13;32.63;149699.72;1784347;79;20929;-62
2022/03/27 08:24:57;;;;;;;4.47;1.47;;;;;;;8.09;32.86;149689.38;1795379;79;21086;-63
2022/03/27 08:27:24;;;;;;;7.17;1.80;;;;;;;8.10;33.02;149693.22;1795589;79;21047;-62
2022/03/27 08:29:51;;;;;;;4.37;1.30;;;;;;;8.20;33.73;149717.84;1795160;79;21314;-60
2022/03/27 08:32:19;;;;;;;10.63;2.20;;;;;;;8.25;32.93;149730.78;1795965;79;21144;-62
2022/03/27 08:34:47;;;;;;;9.43;1.42;;;;;;;8.25;33.35;149730.78;1795211;78;21153;-62
2022/03/27 08:37:17;;;;;;;6.35;1.40;;;;;;;8.22;32.46;149721.75;1795587;79;20987;-62
2022/03/27 08:39:47;;;;;;;7.53;1.40;;;;;;;8.27;32.67;149735.97;1795778;78;20998;-61
2022/03/27 08:42:16;;;;;;;9.13;1.77;;;;;;;8.34;33.27;149752.81;1795237;78;21079;-63
2022/03/27 08:44:43;;;;;;;19.15;2.30;;;;;;;8.48;33.37;149786.52;1795463;78;21064;-62
2022/03/27 08:47:24;;;;;;;15.93;3.25;;;;;;;8.55;33.50;149806.00;1795052;79;21136;-62
2022/03/27 08:50:22;;;;;;;13.03;1.90;;;;;;;8.63;33.44;149824.13;1795835;79;21070;-62
2022/03/27 08:53:04;;;;;;;10.35;1.62;;;;;;;8.59;33.01;149816.36;1795580;79;21482;-63
2022/03/27 08:55:51;;;;;;;11.60;2.05;;;;;;;8.51;33.12;149795.66;1796055;79;21837;-60
2022/03/27 08:58:19;;;;;;;14.35;1.65;;;;;;;8.55;32.84;149806.00;1796010;79;21011;-60
2022/03/27 09:00:47;;;;;;;11.73;1.52;;;;;;;8.55;33.10;149806.00;1795446;78;21061;-61
2022/03/27 09:03:14;;;;;;;13.20;1.90;;;;;;;8.50;33.35;149793.02;1764783;79;21109;-61
2022/03/27 09:05:43;;;;;;;5.85;1.50;;;;;;;8.54;33.68;149803.42;1795869;78;21019;-61
2022/03/27 09:08:11;;;;;;;9.80;1.75;;;;;;;8.60;33.35;149818.95;1796157;79;21139;-61
2022/03/27 09:10:40;;;;;;;6.00;1.55;;;;;;;8.55;33.04;149806.00;1795959;79;20964;-61
2022/03/27 09:13:12;;;;;;;9.48;1.77;;;;;;;8.66;32.49;149833.22;1796325;79;21034;-63
2022/03/27 09:15:43;;;;;;;10.55;1.98;;;;;;;8.75;32.23;149855.25;1795766;79;21019;-61
2022/03/27 09:18:14;;;;;;;11.28;1.55;;;;;;;8.77;32.40;149860.44;1796011;78;21444;-60
2022/03/27 09:20:45;;;;;;;14.35;1.75;;;;;;;8.71;32.31;149844.84;1795266;79;21058;-62
2022/03/27 09:23:25;;;;;;;9.63;2.20;;;;;;;8.63;32.14;149825.45;1793708;78;21086;-59
2022/03/27 09:26:03;;;;;;;12.23;2.25;;;;;;;8.70;32.30;149842.25;1784691;80;21110;-63
2022/03/27 09:28:33;;;;;;;11.63;1.87;;;;;;;8.85;32.12;149881.16;1785303;79;20957;-61
2022/03/27 09:31:08;;;;;;;14.50;2.08;;;;;;;8.96;32.13;149907.09;1784166;79;21126;-60
2022/03/27 09:33:48;;;;;;;;;;;;;;;8.94;31.92;149901.87;1783526;79;21142;-60
2022/03/27 09:36:23;;;;;;;10.63;1.60;;;;;;;8.84;32.07;149878.56;1784916;80;20447;-61
2022/03/27 09:39:16;;;;;;;11.08;1.65;;;;;;;8.72;32.14;149847.44;1784556;79;21066;-63
2022/03/27 09:41:51;;;;;;;13.38;1.60;;;;;;;8.64;32.96;149826.72;1784461;80;21061;-60
2022/03/27 09:44:31;;;;;;;12.98;1.90;;;;;;;8.66;33.10;149833.22;1784921;79;20975;-60
2022/03/27 09:47:04;;;;;;;10.63;1.65;;;;;;;8.71;33.04;149846.17;1784233;79;21120;-62
2022/03/27 09:49:40;;;;;;;7.42;1.62;;;;;;;8.77;32.86;149860.44;1763810;80;20876;-61
2022/03/27 09:52:17;;;;;;;8.63;1.60;;;;;;;8.78;33.00;149863.03;1784675;79;20994;-63
2022/03/27 09:55:07;;;;;;;7.03;1.90;;;;;;;8.81;32.66;149870.80;1784441;79;21327;-62
2022/03/27 09:57:39;;;;;;;4.80;1.60;;;;;;;8.81;32.52;149869.47;1784264;79;21058;-63
2022/03/27 10:00:15;;;;;;;9.45;1.50;;;;;;;8.81;32.37;149870.80;1784377;79;21075;-62
2022/03/27 10:02:44;;;;;;;9.35;1.60;;;;;;;8.88;32.72;149888.92;1784022;79;21070;-61
2022/03/27 10:05:16;;;;;;;10.50;1.75;;;;;;;8.93;32.07;149900.59;1784382;80;21042;-61
2022/03/27 10:07:56;;;;;;;15.65;2.12;;;;;;;8.82;31.57;149873.38;1784145;79;21113;-61
2022/03/27 10:10:26;;;;;;;11.48;1.95;;;;;;;8.70;32.06;149842.25;1784703;79;21461;-61
2022/03/27 10:12:58;;;;;;;6.90;1.80;;;;;;;8.74;32.13;149852.66;1784430;79;21033;-67
2022/03/27 10:15:28;;;;;;;7.50;1.98;;;;;;;8.85;31.88;149879.88;1784183;79;21016;-63
2022/03/27 10:18:01;;;;;;;7.40;1.42;;;;;;;9.02;31.32;149923.91;1763172;80;21488;-63
2022/03/27 10:20:33;;;;;;;7.80;1.62;;;;;;;9.09;31.18;149940.77;1784287;79;20990;-62
2022/03/27 10:23:08;;;;;;;4.62;1.15;;;;;;;9.04;31.08;149927.81;1783626;79;21059;-63
2022/03/27 10:25:45;;;;;;;13.37;2.00;;;;;;;9.03;30.82;149925.23;1803217;79;20986;-63
2022/03/27 10:28:13;;;;;;;11.60;1.55;;;;;;;9.00;31.14;149917.47;1803305;79;21200;-62
2022/03/27 10:30:41;;;;;;;12.60;1.77;;;;;;;9.02;31.29;149922.64;1803185;79;21007;-63
2022/03/27 10:33:08;;;;;;;10.68;2.35;;;;;;;8.98;31.62;149912.28;1803310;79;20974;-63
2022/03/27 10:36:00;;;;;;;13.35;1.77;;;;;;;8.95;31.64;149905.78;1774485;78;20954;-62
2022/03/27 10:38:49;;;;;;;12.63;2.00;;;;;;;8.94;32.07;149901.87;1803647;79;20931;-63
2022/03/27 10:42:07;;;;;;;9.68;1.42;;;;;;;8.98;31.63;149912.28;1803324;79;21050;-64
2022/03/27 10:44:45;;;;;;;10.05;1.60;;;;;;;8.94;31.81;149901.87;1803540;79;21625;-63
2022/03/27 10:47:18;;;;;;;12.82;1.92;;;;;;;8.94;31.47;149901.87;1803186;79;21049;-63
2022/03/27 10:50:08;;;;;;;17.35;1.75;;;;;;;8.96;31.43;149907.09;1803253;78;21073;-64
2022/03/27 10:52:54;;;;;;;5.58;1.47;;;;;;;9.05;31.62;149930.41;1803380;78;21780;-60
2022/03/27 10:55:22;;;;;;;12.45;1.70;;;;;;;9.19;30.73;149964.12;1785157;78;21513;-61
2022/03/27 10:57:50;;;;;;;6.58;1.27;;;;;;;9.28;30.22;149987.44;1803937;79;21019;-61
2022/03/27 11:00:40;;;;;;;8.03;1.42;;;;;;;9.30;29.98;149992.63;1803676;79;21069;-62
2022/03/27 11:03:07;;;;;;;17.17;1.98;;;;;;;9.34;30.28;150002.98;1803431;78;21849;-60
2022/03/27 11:05:41;;;;;;;15.53;2.30;;;;;;;9.29;30.42;149990.03;1774726;79;21236;-61
2022/03/27 11:08:25;;;;;;;14.23;1.67;;;;;;;9.28;30.48;149987.44;1803275;79;21023;-61
2022/03/27 11:10:58;;;;;;;14.83;2.00;;;;;;;9.29;29.97;149991.36;1804004;78;21002;-61
2022/03/27 11:13:33;;;;;;;12.13;2.77;;;;;;;9.32;29.52;149997.81;1803985;78;22196;-63
2022/03/27 11:16:15;;;;;;;11.68;2.22;;;;;;;9.27;29.39;149984.86;1803690;79;21302;-60
2022/03/27 11:18:45;;;;;;;11.88;1.72;;;;;;;9.28;29.04;149987.44;1803291;79;21487;-62
2022/03/27 11:21:30;;;;;;;11.95;1.55;;;;;;;9.29;29.42;149990.03;1803768;78;21097;-60
2022/03/27 11:24:09;;;;;;;16.65;1.82;;;;;;;9.39;29.56;150014.67;1800846;78;21043;-61
2022/03/27 11:26:37;;;;;;;13.13;1.70;;;;;;;9.44;29.45;150028.95;1795984;78;21000;-60
2022/03/27 11:29:23;;;;;;;17.95;2.17;;;;;;;9.45;29.65;150031.53;1795844;79;21078;-61
2022/03/27 11:32:09;;;;;;;9.70;1.90;;;;;;;9.51;29.82;150044.48;1796310;79;21281;-61
2022/03/27 11:34:37;;;;;;;9.75;1.52;;;;;;;9.58;29.94;150062.62;1796465;79;20996;-60
2022/03/27 11:37:27;;;;;;;17.23;2.37;;;;;;;9.63;28.99;150074.31;1795238;78;20974;-60
2022/03/27 11:39:47;;;;;;;14.47;1.45;;;;;;;9.65;28.77;150079.50;1793918;79;21066;-61
2022/03/27 11:42:33;;;;;;;9.23;1.15;;;;;;;9.66;29.16;150083.41;1796080;78;20955;-61
2022/03/27 11:45:13;;;;;;;;;;;;;;;9.65;29.51;150080.81;1798230;79;21547;-61